Arthur Brusco — WDC3449 — position and weather

sailwx.info

Track history (hours):
 
Tides and Currents Weather Stations Pressure Air Temp Water Temp Dewpoint Dewpoint Depression Visibility Wind Speed Wind Dir Waves Ship Positions

Arthur Brusco

Owner: Brusco Tug & Barge, Inc, Longview, WA. More information available from US FCC via Universal Licensing System and Coast Guard Vessel Documentation Center.

Last reported at 2016-Sep-26 01:29 UTC. Time now 2016-Sep-26 02:01 UTC.
Position N 37°39' W 123°28'.

Length 35 m; draft 3.2 m.

Type: Other ship. MMSI: 271040404.

Date/timePositionNaut miles runAvg speedWind from/ knotsBaromVisibWave heightAir tempDewpointWater temp
2016-Sep-26 01:29N 37°39' W 123°28'5 5.6
2016-Sep-26 00:33N 37°39' W 123°21'22 7.3
2016-Sep-25 21:34N 37°40' W 122°54'27 6.8
2016-Sep-25 17:34N 37°48' W 122°21'2 2.3
2016-Sep-25 16:34N 37°49' W 122°19'0 0.0
2016-Sep-25 15:34N 37°49' W 122°19'0 0.0
2016-Sep-25 14:34N 37°49' W 122°19'0 0.0
2016-Sep-25 12:34N 37°49' W 122°18'0 0.0
2016-Sep-25 11:33N 37°49' W 122°18'0 0.0
2016-Sep-25 10:34N 37°49' W 122°19'0 0.0
2016-Sep-25 09:34N 37°49' W 122°19'2 1.2
2016-Sep-25 07:34N 37°50' W 122°21'2 0.8
2016-Sep-25 04:34N 37°49' W 122°18'0 0.0
2016-Sep-25 00:33N 37°49' W 122°18'0 0.0
2016-Sep-24 22:34N 37°49' W 122°18'0 0.0
2016-Sep-24 21:34N 37°49' W 122°19'7 3.3
2016-Sep-24 19:34N 37°49' W 122°27'6 5.8
2016-Sep-24 18:34N 37°47' W 122°34'9 7.7
2016-Sep-24 17:27N 37°43' W 122°43'13 9.6
2016-Sep-24 16:08N 37°36' W 122°56'5 0.9
2016-Sep-24 10:18N 37°38' W 123°02'36 5.4
2016-Sep-24 03:33N 37°49' W 122°19'0 0.0
2016-Sep-24 02:33N 37°49' W 122°19'3 2.9
2016-Sep-24 01:33N 37°48' W 122°22'0 0.5
2016-Sep-24 00:34N 37°48' W 122°21'4 0.8
2016-Sep-23 19:33N 37°48' W 122°17'8 3.8
2016-Sep-23 17:33N 37°49' W 122°26'6 6.2
2016-Sep-23 16:33N 37°47' W 122°34'7 7.5
2016-Sep-23 15:33N 37°44' W 122°42'18 8.8
2016-Sep-23 13:33N 37°34' W 123°00'6 0.8
2016-Sep-23 06:33N 37°38' W 123°05'11 5.3
2016-Sep-23 04:31N 37°41' W 122°51'11 5.4
2016-Sep-23 02:24N 37°46' W 122°38'5 5.9
2016-Sep-23 01:33N 37°48' W 122°32'6 6.5
2016-Sep-23 00:33N 37°50' W 122°25'3 3.1
2016-Sep-22 23:33N 37°48' W 122°21'2 0.8
2016-Sep-22 20:33N 37°49' W 122°19'2 0.2
2016-Sep-22 12:33N 37°48' W 122°19'4 0.4
2016-Sep-22 04:34N 37°46' W 122°15'1 0.7
2016-Sep-22 03:33N 37°47' W 122°15'3 1.1
2016-Sep-22 00:33N 37°49' W 122°18'0 0.0
2016-Sep-21 23:33N 37°49' W 122°18'0 0.0
2016-Sep-21 22:33N 37°49' W 122°18'2 0.5
2016-Sep-21 19:34N 37°48' W 122°19'3 0.8
2016-Sep-21 16:33N 37°50' W 122°21'0 0.0
2016-Sep-21 09:33N 37°50' W 122°21'0 0.0
2016-Sep-21 08:33N 37°50' W 122°21'0 0.0
2016-Sep-21 05:33N 37°50' W 122°21'4 2.2
2016-Sep-21 03:33N 37°48' W 122°17'4 4.1
2016-Sep-21 02:33N 37°49' W 122°21'2 0.3
2016-Sep-20 17:33N 37°49' W 122°19'2 0.6
2016-Sep-20 14:33N 37°49' W 122°21'1 1.3
2016-Sep-20 13:33N 37°50' W 122°22'0 0.1
2016-Sep-20 10:33N 37°50' W 122°21'0 0.0
2016-Sep-20 08:33N 37°50' W 122°21'2 2.0
2016-Sep-20 07:33N 37°49' W 122°19'1 0.9
2016-Sep-20 06:33N 37°48' W 122°20'0 0.0
2016-Sep-20 02:33N 37°48' W 122°20'2 0.8
2016-Sep-19 23:33N 37°50' W 122°21'0 0.0
2016-Sep-19 19:33N 37°50' W 122°21'0 0.0
2016-Sep-19 18:33N 37°50' W 122°21'2 1.2
2016-Sep-19 16:33N 37°48' W 122°19'3 1.3
2016-Sep-19 14:33N 37°50' W 122°21'0 0.0
2016-Sep-19 13:33N 37°50' W 122°21'0 0.0
2016-Sep-19 12:33N 37°50' W 122°21'0 0.0
2016-Sep-19 11:33N 37°50' W 122°21'0 0.1
2016-Sep-19 09:33N 37°50' W 122°21'0 0.0
2016-Sep-19 07:33N 37°50' W 122°21'0 0.0
2016-Sep-19 06:33N 37°50' W 122°21'3 1.1
2016-Sep-19 03:33N 37°49' W 122°26'5 5.1
2016-Sep-19 02:33N 37°49' W 122°19'1 0.3
2016-Sep-19 00:33N 37°49' W 122°19'0 0.0
2016-Sep-18 19:33N 37°49' W 122°19'0 0.1
2016-Sep-18 15:33N 37°49' W 122°19'0 0.0
2016-Sep-18 14:33N 37°49' W 122°19'0 0.0
2016-Sep-18 10:33N 37°49' W 122°19'1 0.8
2016-Sep-18 09:33N 37°49' W 122°19'4 0.6
2016-Sep-18 02:33N 37°47' W 122°15'4 4.1
2016-Sep-18 01:33N 37°48' W 122°19'2 2.5
2016-Sep-18 00:33N 37°50' W 122°21'0 0.0
2016-Sep-17 22:33N 37°50' W 122°21'1 0.5
2016-Sep-17 21:33N 37°50' W 122°22'2 1.9
2016-Sep-17 20:33N 37°48' W 122°22'3 2.5
2016-Sep-17 19:16N 37°49' W 122°18'2 0.3
2016-Sep-17 13:34N 37°48' W 122°19'1 1.5
2016-Sep-17 12:34N 37°49' W 122°19'0 0.0
2016-Sep-17 10:33N 37°49' W 122°19'0 0.0
2016-Sep-17 09:33N 37°49' W 122°19'0 0.0
2016-Sep-17 08:33N 37°49' W 122°19'0 0.0
2016-Sep-17 07:34N 37°49' W 122°19'0 0.0
2016-Sep-17 05:33N 37°49' W 122°19'0 0.0
2016-Sep-17 04:33N 37°49' W 122°19'2 0.6
2016-Sep-17 00:33N 37°50' W 122°21'2 0.3
2016-Sep-16 17:33N 37°49' W 122°19'0 0.0
2016-Sep-16 15:33N 37°49' W 122°19'0 0.0
2016-Sep-16 12:33N 37°49' W 122°19'2 0.5
2016-Sep-16 09:33N 37°48' W 122°19'2 0.8
2016-Sep-16 07:33N 37°49' W 122°19'0 0.0
2016-Sep-16 03:33N 37°49' W 122°19'0 0.0
2016-Sep-16 02:33N 37°49' W 122°19'  
Track history (hours):
 
Tides and Currents Weather Stations Pressure Air Temp Water Temp Dewpoint Dewpoint Depression Visibility Wind Speed Wind Dir Waves Ship Positions

Arthur Brusco

Owner: Brusco Tug & Barge, Inc, Longview, WA. More information available from US FCC via Universal Licensing System and Coast Guard Vessel Documentation Center.

Last reported at 2016-Sep-26 01:29 UTC. Time now 2016-Sep-26 02:01 UTC.
Position N 37°39' W 123°28'.

Length 35 m; draft 3.2 m.

Type: Other ship. MMSI: 271040404.

Date/timePositionNaut miles runAvg speedWind from/ knotsBaromVisibWave heightAir tempDewpointWater temp
2016-Sep-26 01:29N 37°39' W 123°28'5 5.6
2016-Sep-26 00:33N 37°39' W 123°21'22 7.3
2016-Sep-25 21:34N 37°40' W 122°54'27 6.8
2016-Sep-25 17:34N 37°48' W 122°21'2 2.3
2016-Sep-25 16:34N 37°49' W 122°19'0 0.0
2016-Sep-25 15:34N 37°49' W 122°19'0 0.0
2016-Sep-25 14:34N 37°49' W 122°19'0 0.0
2016-Sep-25 12:34N 37°49' W 122°18'0 0.0
2016-Sep-25 11:33N 37°49' W 122°18'0 0.0
2016-Sep-25 10:34N 37°49' W 122°19'0 0.0
2016-Sep-25 09:34N 37°49' W 122°19'2 1.2
2016-Sep-25 07:34N 37°50' W 122°21'2 0.8
2016-Sep-25 04:34N 37°49' W 122°18'0 0.0
2016-Sep-25 00:33N 37°49' W 122°18'0 0.0
2016-Sep-24 22:34N 37°49' W 122°18'0 0.0
2016-Sep-24 21:34N 37°49' W 122°19'7 3.3
2016-Sep-24 19:34N 37°49' W 122°27'6 5.8
2016-Sep-24 18:34N 37°47' W 122°34'9 7.7
2016-Sep-24 17:27N 37°43' W 122°43'13 9.6
2016-Sep-24 16:08N 37°36' W 122°56'5 0.9
2016-Sep-24 10:18N 37°38' W 123°02'36 5.4
2016-Sep-24 03:33N 37°49' W 122°19'0 0.0
2016-Sep-24 02:33N 37°49' W 122°19'3 2.9
2016-Sep-24 01:33N 37°48' W 122°22'0 0.5
2016-Sep-24 00:34N 37°48' W 122°21'4 0.8
2016-Sep-23 19:33N 37°48' W 122°17'8 3.8
2016-Sep-23 17:33N 37°49' W 122°26'6 6.2
2016-Sep-23 16:33N 37°47' W 122°34'7 7.5
2016-Sep-23 15:33N 37°44' W 122°42'18 8.8
2016-Sep-23 13:33N 37°34' W 123°00'6 0.8
2016-Sep-23 06:33N 37°38' W 123°05'11 5.3
2016-Sep-23 04:31N 37°41' W 122°51'11 5.4
2016-Sep-23 02:24N 37°46' W 122°38'5 5.9
2016-Sep-23 01:33N 37°48' W 122°32'6 6.5
2016-Sep-23 00:33N 37°50' W 122°25'3 3.1
2016-Sep-22 23:33N 37°48' W 122°21'2 0.8
2016-Sep-22 20:33N 37°49' W 122°19'2 0.2
2016-Sep-22 12:33N 37°48' W 122°19'4 0.4
2016-Sep-22 04:34N 37°46' W 122°15'1 0.7
2016-Sep-22 03:33N 37°47' W 122°15'3 1.1
2016-Sep-22 00:33N 37°49' W 122°18'0 0.0
2016-Sep-21 23:33N 37°49' W 122°18'0 0.0
2016-Sep-21 22:33N 37°49' W 122°18'2 0.5
2016-Sep-21 19:34N 37°48' W 122°19'3 0.8
2016-Sep-21 16:33N 37°50' W 122°21'0 0.0
2016-Sep-21 09:33N 37°50' W 122°21'0 0.0
2016-Sep-21 08:33N 37°50' W 122°21'0 0.0
2016-Sep-21 05:33N 37°50' W 122°21'4 2.2
2016-Sep-21 03:33N 37°48' W 122°17'4 4.1
2016-Sep-21 02:33N 37°49' W 122°21'2 0.3
2016-Sep-20 17:33N 37°49' W 122°19'2 0.6
2016-Sep-20 14:33N 37°49' W 122°21'1 1.3
2016-Sep-20 13:33N 37°50' W 122°22'0 0.1
2016-Sep-20 10:33N 37°50' W 122°21'0 0.0
2016-Sep-20 08:33N 37°50' W 122°21'2 2.0
2016-Sep-20 07:33N 37°49' W 122°19'1 0.9
2016-Sep-20 06:33N 37°48' W 122°20'0 0.0
2016-Sep-20 02:33N 37°48' W 122°20'2 0.8
2016-Sep-19 23:33N 37°50' W 122°21'0 0.0
2016-Sep-19 19:33N 37°50' W 122°21'0 0.0
2016-Sep-19 18:33N 37°50' W 122°21'2 1.2
2016-Sep-19 16:33N 37°48' W 122°19'3 1.3
2016-Sep-19 14:33N 37°50' W 122°21'0 0.0
2016-Sep-19 13:33N 37°50' W 122°21'0 0.0
2016-Sep-19 12:33N 37°50' W 122°21'0 0.0
2016-Sep-19 11:33N 37°50' W 122°21'0 0.1
2016-Sep-19 09:33N 37°50' W 122°21'0 0.0
2016-Sep-19 07:33N 37°50' W 122°21'0 0.0
2016-Sep-19 06:33N 37°50' W 122°21'3 1.1
2016-Sep-19 03:33N 37°49' W 122°26'5 5.1
2016-Sep-19 02:33N 37°49' W 122°19'1 0.3
2016-Sep-19 00:33N 37°49' W 122°19'0 0.0
2016-Sep-18 19:33N 37°49' W 122°19'0 0.1
2016-Sep-18 15:33N 37°49' W 122°19'0 0.0
2016-Sep-18 14:33N 37°49' W 122°19'0 0.0
2016-Sep-18 10:33N 37°49' W 122°19'1 0.8
2016-Sep-18 09:33N 37°49' W 122°19'4 0.6
2016-Sep-18 02:33N 37°47' W 122°15'4 4.1
2016-Sep-18 01:33N 37°48' W 122°19'2 2.5
2016-Sep-18 00:33N 37°50' W 122°21'0 0.0
2016-Sep-17 22:33N 37°50' W 122°21'1 0.5
2016-Sep-17 21:33N 37°50' W 122°22'2 1.9
2016-Sep-17 20:33N 37°48' W 122°22'3 2.5
2016-Sep-17 19:16N 37°49' W 122°18'2 0.3
2016-Sep-17 13:34N 37°48' W 122°19'1 1.5
2016-Sep-17 12:34N 37°49' W 122°19'0 0.0
2016-Sep-17 10:33N 37°49' W 122°19'0 0.0
2016-Sep-17 09:33N 37°49' W 122°19'0 0.0
2016-Sep-17 08:33N 37°49' W 122°19'0 0.0
2016-Sep-17 07:34N 37°49' W 122°19'0 0.0
2016-Sep-17 05:33N 37°49' W 122°19'0 0.0
2016-Sep-17 04:33N 37°49' W 122°19'2 0.6
2016-Sep-17 00:33N 37°50' W 122°21'2 0.3
2016-Sep-16 17:33N 37°49' W 122°19'0 0.0
2016-Sep-16 15:33N 37°49' W 122°19'0 0.0
2016-Sep-16 12:33N 37°49' W 122°19'2 0.5
2016-Sep-16 09:33N 37°48' W 122°19'2 0.8
2016-Sep-16 07:33N 37°49' W 122°19'0 0.0
2016-Sep-16 03:33N 37°49' W 122°19'0 0.0
2016-Sep-16 02:33N 37°49' W 122°19'  

Dump ship's entire track history